sensor_id;sensor_type;location;lat;lon;timestamp;pressure;altitude;pressure_sealevel;temperature;humidity
54592;BME280;40488;48.558;18.150;2023-01-31T00:01:46;99164.06;;;3.06;86.67
54592;BME280;40488;48.558;18.150;2023-01-31T00:04:26;99164.00;;;3.03;86.63
54592;BME280;40488;48.558;18.150;2023-01-31T00:07:06;99165.56;;;2.98;86.88
54592;BME280;40488;48.558;18.150;2023-01-31T00:09:45;99169.13;;;3.06;85.89
54592;BME280;40488;48.558;18.150;2023-01-31T00:12:25;99174.88;;;3.00;85.89
54592;BME280;40488;48.558;18.150;2023-01-31T00:15:05;99185.88;;;3.04;86.55
54592;BME280;40488;48.558;18.150;2023-01-31T00:17:45;99188.41;;;3.05;85.67
54592;BME280;40488;48.558;18.150;2023-01-31T00:20:25;99211.19;;;3.08;86.10
54592;BME280;40488;48.558;18.150;2023-01-31T00:23:05;99208.72;;;3.11;85.41
54592;BME280;40488;48.558;18.150;2023-01-31T00:25:44;99204.47;;;3.09;85.87
54592;BME280;40488;48.558;18.150;2023-01-31T00:28:47;99223.88;;;3.13;85.74
54592;BME280;40488;48.558;18.150;2023-01-31T00:31:31;99215.47;;;3.12;85.13
54592;BME280;40488;48.558;18.150;2023-01-31T00:34:12;99225.53;;;3.12;85.18
54592;BME280;40488;48.558;18.150;2023-01-31T00:36:54;99224.72;;;3.12;85.61
54592;BME280;40488;48.558;18.150;2023-01-31T00:39:34;99235.63;;;3.12;85.80
54592;BME280;40488;48.558;18.150;2023-01-31T00:42:03;99209.28;;;2.98;85.84
54592;BME280;40488;48.558;18.150;2023-01-31T00:44:34;99243.25;;;3.15;85.53
54592;BME280;40488;48.558;18.150;2023-01-31T00:47:03;99237.44;;;3.18;85.62
54592;BME280;40488;48.558;18.150;2023-01-31T00:49:32;99266.81;;;3.16;85.26
54592;BME280;40488;48.558;18.150;2023-01-31T00:52:01;99261.69;;;3.13;85.49
54592;BME280;40488;48.558;18.150;2023-01-31T00:54:30;99259.94;;;3.09;85.66
54592;BME280;40488;48.558;18.150;2023-01-31T00:56:59;99263.25;;;3.08;85.46
54592;BME280;40488;48.558;18.150;2023-01-31T00:59:28;99270.81;;;3.08;85.76
54592;BME280;40488;48.558;18.150;2023-01-31T01:02:00;99267.44;;;3.07;85.56
54592;BME280;40488;48.558;18.150;2023-01-31T01:04:29;99269.09;;;3.05;85.78
54592;BME280;40488;48.558;18.150;2023-01-31T01:06:58;99268.13;;;3.00;85.78
54592;BME280;40488;48.558;18.150;2023-01-31T01:09:26;99283.22;;;2.99;85.54
54592;BME280;40488;48.558;18.150;2023-01-31T01:11:55;99274.84;;;3.00;86.33
54592;BME280;40488;48.558;18.150;2023-01-31T01:14:24;99267.31;;;3.01;85.52
54592;BME280;40488;48.558;18.150;2023-01-31T01:16:53;99271.56;;;3.04;85.91
54592;BME280;40488;48.558;18.150;2023-01-31T01:19:26;99271.50;;;3.01;85.40
54592;BME280;40488;48.558;18.150;2023-01-31T01:21:55;99273.25;;;3.05;85.78
54592;BME280;40488;48.558;18.150;2023-01-31T01:24:24;99286.69;;;3.04;85.19
54592;BME280;40488;48.558;18.150;2023-01-31T01:26:54;99279.13;;;3.04;84.89
54592;BME280;40488;48.558;18.150;2023-01-31T01:29:23;99283.41;;;3.08;85.94
54592;BME280;40488;48.558;18.150;2023-01-31T01:31:53;99281.75;;;3.08;85.01
54592;BME280;40488;48.558;18.150;2023-01-31T01:34:22;99286.81;;;3.10;85.29
54592;BME280;40488;48.558;18.150;2023-01-31T01:36:52;99295.34;;;3.15;85.14
54592;BME280;40488;48.558;18.150;2023-01-31T01:39:22;99299.47;;;3.11;84.90
54592;BME280;40488;48.558;18.150;2023-01-31T01:41:50;99291.84;;;3.08;84.46
54592;BME280;40488;48.558;18.150;2023-01-31T01:47:13;99302.63;;;3.03;83.94
54592;BME280;40488;48.558;18.150;2023-01-31T01:49:47;99300.19;;;3.06;84.36
54592;BME280;40488;48.558;18.150;2023-01-31T01:52:19;99301.03;;;3.06;83.61
54592;BME280;40488;48.558;18.150;2023-01-31T01:54:53;99305.19;;;3.04;83.49
54592;BME280;40488;48.558;18.150;2023-01-31T01:57:25;99301.75;;;3.01;83.19
54592;BME280;40488;48.558;18.150;2023-01-31T02:00:02;99311.03;;;3.02;84.02
54592;BME280;40488;48.558;18.150;2023-01-31T02:02:42;99311.81;;;3.01;83.39
54592;BME280;40488;48.558;18.150;2023-01-31T02:05:14;99299.19;;;2.99;83.54
54592;BME280;40488;48.558;18.150;2023-01-31T02:07:46;99312.69;;;3.01;82.90
54592;BME280;40488;48.558;18.150;2023-01-31T02:10:20;99320.22;;;3.00;83.10
54592;BME280;40488;48.558;18.150;2023-01-31T02:12:52;99320.16;;;2.98;83.86
54592;BME280;40488;48.558;18.150;2023-01-31T02:15:21;99306.66;;;2.95;83.32
54592;BME280;40488;48.558;18.150;2023-01-31T02:17:52;99321.81;;;2.98;83.00
54592;BME280;40488;48.558;18.150;2023-01-31T02:20:29;99325.09;;;2.94;83.43
54592;BME280;40488;48.558;18.150;2023-01-31T02:23:09;99318.28;;;2.90;83.38
54592;BME280;40488;48.558;18.150;2023-01-31T02:25:59;99319.78;;;2.82;83.47
54592;BME280;40488;48.558;18.150;2023-01-31T02:28:53;99321.50;;;2.83;82.58
54592;BME280;40488;48.558;18.150;2023-01-31T02:31:56;99319.69;;;2.79;82.82
54592;BME280;40488;48.558;18.150;2023-01-31T02:34:34;99329.75;;;2.79;83.05
54592;BME280;40488;48.558;18.150;2023-01-31T02:37:16;99339.72;;;2.72;82.90
54592;BME280;40488;48.558;18.150;2023-01-31T02:39:58;99335.44;;;2.70;82.04
54592;BME280;40488;48.558;18.150;2023-01-31T02:42:32;99332.97;;;2.71;82.39
54592;BME280;40488;48.558;18.150;2023-01-31T02:45:08;99332.84;;;2.67;82.53
54592;BME280;40488;48.558;18.150;2023-01-31T02:47:50;99327.81;;;2.67;81.64
54592;BME280;40488;48.558;18.150;2023-01-31T02:50:28;99318.50;;;2.64;82.42
54592;BME280;40488;48.558;18.150;2023-01-31T02:53:03;99329.47;;;2.66;82.49
54592;BME280;40488;48.558;18.150;2023-01-31T02:55:37;99335.41;;;2.68;81.92
54592;BME280;40488;48.558;18.150;2023-01-31T02:58:21;99353.06;;;2.68;81.45
54592;BME280;40488;48.558;18.150;2023-01-31T03:00:55;99353.09;;;2.71;82.46
54592;BME280;40488;48.558;18.150;2023-01-31T03:03:27;99351.47;;;2.73;82.24
54592;BME280;40488;48.558;18.150;2023-01-31T03:09:02;99333.59;;;2.63;81.52
54592;BME280;40488;48.558;18.150;2023-01-31T03:11:38;99365.13;;;2.82;81.82
54592;BME280;40488;48.558;18.150;2023-01-31T03:14:19;99358.44;;;2.82;81.75
54592;BME280;40488;48.558;18.150;2023-01-31T03:17:00;99361.81;;;2.83;82.39
54592;BME280;40488;48.558;18.150;2023-01-31T03:19:47;99382.00;;;2.86;83.13
54592;BME280;40488;48.558;18.150;2023-01-31T03:22:25;99388.69;;;2.84;83.34
54592;BME280;40488;48.558;18.150;2023-01-31T03:24:58;99362.22;;;2.66;83.41
54592;BME280;40488;48.558;18.150;2023-01-31T03:27:29;99388.63;;;2.81;83.30
54592;BME280;40488;48.558;18.150;2023-01-31T03:30:02;99395.25;;;2.77;83.23
54592;BME280;40488;48.558;18.150;2023-01-31T03:32:37;99396.91;;;2.77;83.89
54592;BME280;40488;48.558;18.150;2023-01-31T03:35:07;99400.19;;;2.74;84.52
54592;BME280;40488;48.558;18.150;2023-01-31T03:37:42;99400.16;;;2.72;84.22
54592;BME280;40488;48.558;18.150;2023-01-31T03:40:24;99396.69;;;2.67;85.26
54592;BME280;40488;48.558;18.150;2023-01-31T03:42:58;99394.97;;;2.66;85.66
54592;BME280;40488;48.558;18.150;2023-01-31T03:45:34;99396.59;;;2.64;85.26
54592;BME280;40488;48.558;18.150;2023-01-31T03:48:06;99396.53;;;2.61;85.79
54592;BME280;40488;48.558;18.150;2023-01-31T03:50:47;99392.22;;;2.57;85.39
54592;BME280;40488;48.558;18.150;2023-01-31T03:53:21;99411.38;;;2.52;85.27
54592;BME280;40488;48.558;18.150;2023-01-31T03:55:57;99409.50;;;2.45;85.34
54592;BME280;40488;48.558;18.150;2023-01-31T03:58:33;99395.13;;;2.40;85.56
54592;BME280;40488;48.558;18.150;2023-01-31T04:01:05;99407.56;;;2.35;85.98
54592;BME280;40488;48.558;18.150;2023-01-31T04:03:39;99400.59;;;2.25;86.20
54592;BME280;40488;48.558;18.150;2023-01-31T04:06:10;99393.84;;;2.24;85.80
54592;BME280;40488;48.558;18.150;2023-01-31T04:08:39;99382.03;;;2.23;86.80
54592;BME280;40488;48.558;18.150;2023-01-31T04:11:13;99388.88;;;2.27;86.30
54592;BME280;40488;48.558;18.150;2023-01-31T04:13:42;99387.25;;;2.29;86.83
54592;BME280;40488;48.558;18.150;2023-01-31T04:16:11;99390.75;;;2.34;86.50
54592;BME280;40488;48.558;18.150;2023-01-31T04:18:40;99391.56;;;2.33;86.13
54592;BME280;40488;48.558;18.150;2023-01-31T04:21:09;99404.97;;;2.32;86.76
54592;BME280;40488;48.558;18.150;2023-01-31T04:23:38;99404.91;;;2.31;86.07
54592;BME280;40488;48.558;18.150;2023-01-31T04:26:07;99410.81;;;2.31;86.34
54592;BME280;40488;48.558;18.150;2023-01-31T04:28:37;99415.75;;;2.28;86.16
54592;BME280;40488;48.558;18.150;2023-01-31T04:31:06;99412.44;;;2.29;85.41
54592;BME280;40488;48.558;18.150;2023-01-31T04:33:35;99427.53;;;2.29;85.63
54592;BME280;40488;48.558;18.150;2023-01-31T04:36:05;99427.56;;;2.31;85.94
54592;BME280;40488;48.558;18.150;2023-01-31T04:38:34;99432.69;;;2.32;86.31
54592;BME280;40488;48.558;18.150;2023-01-31T04:41:03;99436.09;;;2.34;85.87
54592;BME280;40488;48.558;18.150;2023-01-31T04:43:32;99437.78;;;2.35;85.40
54592;BME280;40488;48.558;18.150;2023-01-31T04:46:02;99411.38;;;2.21;85.47
54592;BME280;40488;48.558;18.150;2023-01-31T04:48:31;99445.47;;;2.40;85.50
54592;BME280;40488;48.558;18.150;2023-01-31T04:51:00;99448.88;;;2.42;85.22
54592;BME280;40488;48.558;18.150;2023-01-31T04:53:29;99453.06;;;2.41;86.01
54592;BME280;40488;48.558;18.150;2023-01-31T04:55:57;99449.00;;;2.46;86.10
54592;BME280;40488;48.558;18.150;2023-01-31T04:58:27;99455.72;;;2.46;86.05
54592;BME280;40488;48.558;18.150;2023-01-31T05:00:56;99452.41;;;2.48;85.61
54592;BME280;40488;48.558;18.150;2023-01-31T05:03:26;99447.50;;;2.53;85.25
54592;BME280;40488;48.558;18.150;2023-01-31T05:05:55;99455.88;;;2.52;85.20
54592;BME280;40488;48.558;18.150;2023-01-31T05:08:24;99450.84;;;2.52;85.21
54592;BME280;40488;48.558;18.150;2023-01-31T05:10:56;99448.34;;;2.52;84.85
54592;BME280;40488;48.558;18.150;2023-01-31T05:13:28;99444.06;;;2.49;84.36
54592;BME280;40488;48.558;18.150;2023-01-31T05:15:59;99454.19;;;2.52;84.87
54592;BME280;40488;48.558;18.150;2023-01-31T05:18:29;99466.13;;;2.58;84.41
54592;BME280;40488;48.558;18.150;2023-01-31T05:20:58;99459.44;;;2.60;83.22
54592;BME280;40488;48.558;18.150;2023-01-31T05:23:27;99468.66;;;2.59;83.43
54592;BME280;40488;48.558;18.150;2023-01-31T05:25:57;99465.16;;;2.54;82.83
54592;BME280;40488;48.558;18.150;2023-01-31T05:28:26;99481.34;;;2.62;81.98
54592;BME280;40488;48.558;18.150;2023-01-31T05:31:01;99489.72;;;2.61;82.04
54592;BME280;40488;48.558;18.150;2023-01-31T05:33:33;99502.38;;;2.64;81.63
54592;BME280;40488;48.558;18.150;2023-01-31T05:36:03;99507.53;;;2.67;81.43
54592;BME280;40488;48.558;18.150;2023-01-31T05:38:32;99505.81;;;2.66;80.69
54592;BME280;40488;48.558;18.150;2023-01-31T05:41:00;99517.59;;;2.67;80.09
54592;BME280;40488;48.558;18.150;2023-01-31T05:43:29;99520.09;;;2.66;80.26
54592;BME280;40488;48.558;18.150;2023-01-31T05:45:58;99525.16;;;2.67;79.36
54592;BME280;40488;48.558;18.150;2023-01-31T05:48:27;99524.16;;;2.62;79.14
54592;BME280;40488;48.558;18.150;2023-01-31T05:50:57;99529.13;;;2.59;78.55
54592;BME280;40488;48.558;18.150;2023-01-31T05:53:26;99537.50;;;2.58;78.70
54592;BME280;40488;48.558;18.150;2023-01-31T05:55:55;99539.88;;;2.54;78.88
54592;BME280;40488;48.558;18.150;2023-01-31T05:58:24;99541.44;;;2.50;78.22
54592;BME280;40488;48.558;18.150;2023-01-31T06:00:54;99540.47;;;2.45;78.30
54592;BME280;40488;48.558;18.150;2023-01-31T06:03:24;99543.97;;;2.50;78.83
54592;BME280;40488;48.558;18.150;2023-01-31T06:05:52;99547.22;;;2.46;77.80
54592;BME280;40488;48.558;18.150;2023-01-31T06:08:23;99542.19;;;2.46;77.92
54592;BME280;40488;48.558;18.150;2023-01-31T06:10:52;99536.03;;;2.37;77.39
54592;BME280;40488;48.558;18.150;2023-01-31T06:13:21;99549.59;;;2.42;77.13
54592;BME280;40488;48.558;18.150;2023-01-31T06:15:50;99560.53;;;2.42;77.64
54592;BME280;40488;48.558;18.150;2023-01-31T06:18:18;99558.81;;;2.41;77.55
54592;BME280;40488;48.558;18.150;2023-01-31T06:20:48;99552.88;;;2.39;77.39
54592;BME280;40488;48.558;18.150;2023-01-31T06:23:16;99555.50;;;2.42;77.14
54592;BME280;40488;48.558;18.150;2023-01-31T06:25:49;99558.91;;;2.44;76.83
54592;BME280;40488;48.558;18.150;2023-01-31T06:28:18;99562.22;;;2.43;76.85
54592;BME280;40488;48.558;18.150;2023-01-31T06:30:47;99564.66;;;2.40;76.18
54592;BME280;40488;48.558;18.150;2023-01-31T06:33:16;99566.38;;;2.41;76.94
54592;BME280;40488;48.558;18.150;2023-01-31T06:35:45;99567.16;;;2.40;76.84
54592;BME280;40488;48.558;18.150;2023-01-31T06:38:14;99572.16;;;2.37;76.65
54592;BME280;40488;48.558;18.150;2023-01-31T06:40:43;99573.72;;;2.35;76.06
54592;BME280;40488;48.558;18.150;2023-01-31T06:43:13;99589.94;;;2.43;75.57
54592;BME280;40488;48.558;18.150;2023-01-31T06:45:42;99590.06;;;2.48;75.93
54592;BME280;40488;48.558;18.150;2023-01-31T06:48:11;99594.34;;;2.50;75.63
54592;BME280;40488;48.558;18.150;2023-01-31T06:50:40;99606.19;;;2.54;75.85
54592;BME280;40488;48.558;18.150;2023-01-31T06:53:09;99605.50;;;2.58;75.06
54592;BME280;40488;48.558;18.150;2023-01-31T06:55:38;99597.22;;;2.62;75.46
54592;BME280;40488;48.558;18.150;2023-01-31T06:58:07;99608.38;;;2.70;75.18
54592;BME280;40488;48.558;18.150;2023-01-31T07:00:37;99614.28;;;2.71;74.98
54592;BME280;40488;48.558;18.150;2023-01-31T07:03:06;99610.06;;;2.71;75.14
54592;BME280;40488;48.558;18.150;2023-01-31T07:05:34;99621.88;;;2.72;74.20
54592;BME280;40488;48.558;18.150;2023-01-31T07:08:04;99611.91;;;2.76;74.20
54592;BME280;40488;48.558;18.150;2023-01-31T07:10:33;99617.34;;;2.91;74.99
54592;BME280;40488;48.558;18.150;2023-01-31T07:13:02;99609.34;;;3.04;74.38
54592;BME280;40488;48.558;18.150;2023-01-31T07:15:31;99621.38;;;3.14;74.19
54592;BME280;40488;48.558;18.150;2023-01-31T07:18:01;99620.56;;;3.15;74.46
54592;BME280;40488;48.558;18.150;2023-01-31T07:20:30;99625.72;;;3.19;73.57
54592;BME280;40488;48.558;18.150;2023-01-31T07:22:59;99615.72;;;3.22;73.91
54592;BME280;40488;48.558;18.150;2023-01-31T07:25:27;99635.13;;;3.25;73.78
54592;BME280;40488;48.558;18.150;2023-01-31T07:27:58;99636.75;;;3.23;73.68
54592;BME280;40488;48.558;18.150;2023-01-31T07:30:27;99638.41;;;3.21;73.78
54592;BME280;40488;48.558;18.150;2023-01-31T07:32:57;99630.78;;;3.19;73.00
54592;BME280;40488;48.558;18.150;2023-01-31T07:35:28;99641.03;;;3.25;72.89
54592;BME280;40488;48.558;18.150;2023-01-31T07:37:57;99641.97;;;3.29;72.68
54592;BME280;40488;48.558;18.150;2023-01-31T07:40:26;99649.53;;;3.29;73.22
54592;BME280;40488;48.558;18.150;2023-01-31T07:42:56;99661.34;;;3.30;73.25
54592;BME280;40488;48.558;18.150;2023-01-31T07:45:26;99655.56;;;3.34;73.19
54592;BME280;40488;48.558;18.150;2023-01-31T07:47:56;99665.63;;;3.34;73.09
54592;BME280;40488;48.558;18.150;2023-01-31T07:50:27;99670.69;;;3.34;72.69
54592;BME280;40488;48.558;18.150;2023-01-31T07:52:57;99675.72;;;3.34;72.60
54592;BME280;40488;48.558;18.150;2023-01-31T07:55:26;99680.75;;;3.32;72.61
54592;BME280;40488;48.558;18.150;2023-01-31T07:57:54;99683.25;;;3.32;72.74
54592;BME280;40488;48.558;18.150;2023-01-31T08:00:23;99679.00;;;3.30;72.72
54592;BME280;40488;48.558;18.150;2023-01-31T08:03:02;99683.22;;;3.31;73.14
54592;BME280;40488;48.558;18.150;2023-01-31T08:05:44;99694.97;;;3.30;73.10
54592;BME280;40488;48.558;18.150;2023-01-31T08:08:14;99697.63;;;3.35;73.13
54592;BME280;40488;48.558;18.150;2023-01-31T08:10:43;99699.31;;;3.36;72.69
54592;BME280;40488;48.558;18.150;2023-01-31T08:13:13;99685.81;;;3.34;73.21
54592;BME280;40488;48.558;18.150;2023-01-31T08:15:42;99698.41;;;3.32;72.64
54592;BME280;40488;48.558;18.150;2023-01-31T08:18:11;99699.97;;;3.29;73.01
54592;BME280;40488;48.558;18.150;2023-01-31T08:20:42;99696.88;;;3.39;72.74
54592;BME280;40488;48.558;18.150;2023-01-31T08:23:11;99703.44;;;3.62;72.31
54592;BME280;40488;48.558;18.150;2023-01-31T08:25:40;99702.28;;;3.82;71.60
54592;BME280;40488;48.558;18.150;2023-01-31T08:28:09;99688.56;;;4.05;72.14
54592;BME280;40488;48.558;18.150;2023-01-31T08:30:39;99693.28;;;4.25;71.53
54592;BME280;40488;48.558;18.150;2023-01-31T08:33:10;99686.91;;;4.39;70.97
54592;BME280;40488;48.558;18.150;2023-01-31T08:35:39;99694.88;;;4.55;70.41
54592;BME280;40488;48.558;18.150;2023-01-31T08:38:09;99696.13;;;4.74;69.85
54592;BME280;40488;48.558;18.150;2023-01-31T08:40:43;99704.00;;;4.88;69.18
54592;BME280;40488;48.558;18.150;2023-01-31T08:43:12;99715.19;;;4.97;68.93
54592;BME280;40488;48.558;18.150;2023-01-31T08:45:41;99712.81;;;5.05;68.01
54592;BME280;40488;48.558;18.150;2023-01-31T08:48:10;99706.25;;;5.13;67.66
54592;BME280;40488;48.558;18.150;2023-01-31T08:50:39;99712.47;;;5.28;67.38
54592;BME280;40488;48.558;18.150;2023-01-31T08:53:09;99719.25;;;5.29;66.87
54592;BME280;40488;48.558;18.150;2023-01-31T08:55:38;99723.88;;;5.08;66.19
54592;BME280;40488;48.558;18.150;2023-01-31T08:58:07;99722.88;;;5.02;65.98
54592;BME280;40488;48.558;18.150;2023-01-31T09:00:36;99728.97;;;5.11;66.04
54592;BME280;40488;48.558;18.150;2023-01-31T09:03:04;99733.47;;;5.23;65.67
54592;BME280;40488;48.558;18.150;2023-01-31T09:05:33;99735.41;;;5.34;65.41
54592;BME280;40488;48.558;18.150;2023-01-31T09:08:02;99737.25;;;5.43;65.01
54592;BME280;40488;48.558;18.150;2023-01-31T09:10:32;99741.69;;;5.55;64.78
54592;BME280;40488;48.558;18.150;2023-01-31T09:13:01;99732.56;;;5.61;64.56
54592;BME280;40488;48.558;18.150;2023-01-31T09:15:30;99716.28;;;5.49;64.21
54592;BME280;40488;48.558;18.150;2023-01-31T09:17:59;99740.28;;;5.69;63.88
54592;BME280;40488;48.558;18.150;2023-01-31T09:20:28;99750.56;;;5.75;63.57
54592;BME280;40488;48.558;18.150;2023-01-31T09:22:57;99752.47;;;5.85;63.43
54592;BME280;40488;48.558;18.150;2023-01-31T09:25:25;99737.56;;;6.00;63.04
54592;BME280;40488;48.558;18.150;2023-01-31T09:28:14;99760.69;;;6.17;62.81
54592;BME280;40488;48.558;18.150;2023-01-31T09:30:43;99767.53;;;6.22;62.36
54592;BME280;40488;48.558;18.150;2023-01-31T09:33:11;99766.78;;;6.26;62.13
54592;BME280;40488;48.558;18.150;2023-01-31T09:35:40;99777.56;;;6.18;61.26
54592;BME280;40488;48.558;18.150;2023-01-31T09:38:09;99783.38;;;6.12;61.69
54592;BME280;40488;48.558;18.150;2023-01-31T09:40:39;99785.91;;;6.12;61.50
54592;BME280;40488;48.558;18.150;2023-01-31T09:43:10;99797.84;;;6.19;61.03
54592;BME280;40488;48.558;18.150;2023-01-31T09:45:43;99790.47;;;6.30;61.43
54592;BME280;40488;48.558;18.150;2023-01-31T09:48:16;99787.19;;;6.35;60.90
54592;BME280;40488;48.558;18.150;2023-01-31T09:50:49;99790.59;;;6.37;60.44
54592;BME280;40488;48.558;18.150;2023-01-31T09:53:27;99790.47;;;6.31;59.73
54592;BME280;40488;48.558;18.150;2023-01-31T09:56:10;99789.69;;;6.34;59.99
54592;BME280;40488;48.558;18.150;2023-01-31T09:58:49;99785.84;;;6.55;58.90
54592;BME280;40488;48.558;18.150;2023-01-31T10:01:27;99794.50;;;6.68;59.47
54592;BME280;40488;48.558;18.150;2023-01-31T10:04:13;99788.75;;;6.77;59.16
54592;BME280;40488;48.558;18.150;2023-01-31T10:06:53;99806.66;;;6.89;59.08
54592;BME280;40488;48.558;18.150;2023-01-31T10:09:28;99788.91;;;6.89;57.83
54592;BME280;40488;48.558;18.150;2023-01-31T10:12:04;99795.91;;;7.03;58.35
54592;BME280;40488;48.558;18.150;2023-01-31T10:14:41;99800.22;;;7.09;57.36
54592;BME280;40488;48.558;18.150;2023-01-31T10:17:20;99794.41;;;7.14;56.70
54592;BME280;40488;48.558;18.150;2023-01-31T10:19:53;99790.25;;;7.21;56.60
54592;BME280;40488;48.558;18.150;2023-01-31T10:22:34;99787.94;;;7.36;56.54
54592;BME280;40488;48.558;18.150;2023-01-31T10:25:18;99794.06;;;7.50;56.06
54592;BME280;40488;48.558;18.150;2023-01-31T10:27:49;99798.34;;;7.53;55.95
54592;BME280;40488;48.558;18.150;2023-01-31T10:30:22;99794.00;;;7.47;54.99
54592;BME280;40488;48.558;18.150;2023-01-31T10:32:58;99770.94;;;7.32;54.69
54592;BME280;40488;48.558;18.150;2023-01-31T10:35:32;99801.91;;;7.68;54.40
54592;BME280;40488;48.558;18.150;2023-01-31T10:38:14;99799.94;;;7.48;54.87
54592;BME280;40488;48.558;18.150;2023-01-31T10:40:49;99787.84;;;7.28;54.65
54592;BME280;40488;48.558;18.150;2023-01-31T10:43:30;99801.97;;;7.13;54.52
54592;BME280;40488;48.558;18.150;2023-01-31T10:46:08;99804.25;;;6.93;55.42
54592;BME280;40488;48.558;18.150;2023-01-31T10:48:41;99801.47;;;6.80;55.74
54592;BME280;40488;48.558;18.150;2023-01-31T10:51:26;99802.94;;;6.65;56.64
54592;BME280;40488;48.558;18.150;2023-01-31T10:54:16;99797.50;;;6.44;57.54
54592;BME280;40488;48.558;18.150;2023-01-31T10:56:48;99810.00;;;6.35;58.30
54592;BME280;40488;48.558;18.150;2023-01-31T10:59:21;99797.06;;;6.20;58.76
54592;BME280;40488;48.558;18.150;2023-01-31T11:01:51;99803.59;;;6.09;58.59
54592;BME280;40488;48.558;18.150;2023-01-31T11:04:29;99796.56;;;5.94;58.92
54592;BME280;40488;48.558;18.150;2023-01-31T11:07:00;99806.38;;;5.81;59.43
54592;BME280;40488;48.558;18.150;2023-01-31T11:09:32;99815.34;;;5.65;59.65
54592;BME280;40488;48.558;18.150;2023-01-31T11:12:04;99809.09;;;5.50;60.16
54592;BME280;40488;48.558;18.150;2023-01-31T11:14:34;99811.53;;;5.45;61.02
54592;BME280;40488;48.558;18.150;2023-01-31T11:17:05;99811.25;;;5.33;61.88
54592;BME280;40488;48.558;18.150;2023-01-31T11:19:42;99808.59;;;5.25;62.00
54592;BME280;40488;48.558;18.150;2023-01-31T11:22:21;99799.38;;;5.30;62.09
54592;BME280;40488;48.558;18.150;2023-01-31T11:24:52;99808.78;;;5.34;62.74
54592;BME280;40488;48.558;18.150;2023-01-31T11:27:26;99806.38;;;5.40;62.86
54592;BME280;40488;48.558;18.150;2023-01-31T11:29:58;99800.50;;;5.41;63.19
54592;BME280;40488;48.558;18.150;2023-01-31T11:32:29;99789.00;;;5.56;63.43
54592;BME280;40488;48.558;18.150;2023-01-31T11:35:03;99786.28;;;5.87;63.45
54592;BME280;40488;48.558;18.150;2023-01-31T11:37:33;99790.38;;;6.25;63.40
54592;BME280;40488;48.558;18.150;2023-01-31T11:40:17;99770.28;;;6.34;62.12
54592;BME280;40488;48.558;18.150;2023-01-31T11:42:53;99774.09;;;6.60;61.65
54592;BME280;40488;48.558;18.150;2023-01-31T11:45:24;99772.69;;;6.76;61.39
54592;BME280;40488;48.558;18.150;2023-01-31T11:47:57;99761.13;;;6.95;60.34
54592;BME280;40488;48.558;18.150;2023-01-31T11:50:33;99767.31;;;7.13;58.63
54592;BME280;40488;48.558;18.150;2023-01-31T11:53:15;99763.66;;;6.96;58.77
54592;BME280;40488;48.558;18.150;2023-01-31T11:55:47;99769.34;;;6.80;58.95
54592;BME280;40488;48.558;18.150;2023-01-31T11:58:19;99774.88;;;6.56;59.57
54592;BME280;40488;48.558;18.150;2023-01-31T12:00:52;99780.53;;;6.40;60.83
54592;BME280;40488;48.558;18.150;2023-01-31T12:07:00;99782.06;;;6.32;62.13
54592;BME280;40488;48.558;18.150;2023-01-31T12:09:40;99776.13;;;6.30;62.88
54592;BME280;40488;48.558;18.150;2023-01-31T12:12:28;99775.19;;;6.25;62.05
54592;BME280;40488;48.558;18.150;2023-01-31T12:15:01;99771.41;;;6.51;61.72
54592;BME280;40488;48.558;18.150;2023-01-31T12:17:35;99776.69;;;6.62;62.51
54592;BME280;40488;48.558;18.150;2023-01-31T12:20:16;99774.25;;;6.69;62.60
54592;BME280;40488;48.558;18.150;2023-01-31T12:23:05;99771.69;;;6.66;62.43
54592;BME280;40488;48.558;18.150;2023-01-31T12:25:48;99769.94;;;6.64;62.61
54592;BME280;40488;48.558;18.150;2023-01-31T12:34:23;99765.34;;;6.43;61.79
54592;BME280;40488;48.558;18.150;2023-01-31T12:37:06;99761.94;;;6.41;62.15
54592;BME280;40488;48.558;18.150;2023-01-31T12:40:00;99770.47;;;6.45;62.19
54592;BME280;40488;48.558;18.150;2023-01-31T12:42:56;99761.13;;;6.44;62.05
54592;BME280;40488;48.558;18.150;2023-01-31T12:45:43;99762.06;;;6.47;62.66
54592;BME280;40488;48.558;18.150;2023-01-31T12:51:19;99758.59;;;6.42;62.73
54592;BME280;40488;48.558;18.150;2023-01-31T12:54:00;99763.38;;;6.27;63.07
54592;BME280;40488;48.558;18.150;2023-01-31T12:56:44;99770.59;;;6.04;64.12
54592;BME280;40488;48.558;18.150;2023-01-31T12:59:28;99764.44;;;5.92;65.09
54592;BME280;40488;48.558;18.150;2023-01-31T13:02:15;99779.34;;;5.80;65.60
54592;BME280;40488;48.558;18.150;2023-01-31T13:04:48;99771.53;;;5.69;66.52
54592;BME280;40488;48.558;18.150;2023-01-31T13:07:25;99774.69;;;5.58;67.23
54592;BME280;40488;48.558;18.150;2023-01-31T13:10:00;99767.63;;;5.43;67.95
54592;BME280;40488;48.558;18.150;2023-01-31T13:12:34;99769.19;;;5.36;68.34
54592;BME280;40488;48.558;18.150;2023-01-31T13:15:25;99772.56;;;5.37;69.37
54592;BME280;40488;48.558;18.150;2023-01-31T13:17:59;99769.97;;;5.35;69.83
54592;BME280;40488;48.558;18.150;2023-01-31T13:20:33;99778.41;;;5.34;70.16
54592;BME280;40488;48.558;18.150;2023-01-31T13:23:10;99774.16;;;5.32;70.50
54592;BME280;40488;48.558;18.150;2023-01-31T13:25:45;99771.56;;;5.30;70.91
54592;BME280;40488;48.558;18.150;2023-01-31T13:28:22;99774.72;;;5.20;71.32
54592;BME280;40488;48.558;18.150;2023-01-31T13:30:55;99768.75;;;5.18;71.37
54592;BME280;40488;48.558;18.150;2023-01-31T13:33:34;99770.47;;;5.19;72.01
54592;BME280;40488;48.558;18.150;2023-01-31T13:36:15;99762.69;;;5.10;72.42
54592;BME280;40488;48.558;18.150;2023-01-31T13:38:47;99762.53;;;5.04;72.76
54592;BME280;40488;48.558;18.150;2023-01-31T13:41:17;99764.00;;;4.93;73.10
54592;BME280;40488;48.558;18.150;2023-01-31T13:43:50;99760.38;;;4.82;73.55
54592;BME280;40488;48.558;18.150;2023-01-31T13:46:23;99769.47;;;4.75;74.25
54592;BME280;40488;48.558;18.150;2023-01-31T13:48:57;99768.47;;;4.69;74.67
54592;BME280;40488;48.558;18.150;2023-01-31T13:51:32;99760.09;;;4.70;74.83